createdAt,value
2022-12-19T00:01:38.773Z,16.30
2022-12-19T00:04:09.390Z,16.30
2022-12-19T00:09:05.565Z,15.65
2022-12-19T00:11:33.760Z,15.10
2022-12-19T00:14:01.104Z,15.32
2022-12-19T00:16:30.265Z,16.02
2022-12-19T00:19:00.757Z,16.30
2022-12-19T00:21:30.340Z,16.08
2022-12-19T00:23:58.117Z,15.50
2022-12-19T00:26:27.900Z,15.43
2022-12-19T00:28:58.400Z,15.32
2022-12-19T00:31:28.077Z,14.52
2022-12-19T00:33:55.807Z,14.80
2022-12-19T00:36:25.073Z,14.48
2022-12-19T00:38:53.792Z,14.27
2022-12-19T00:41:23.355Z,15.02
2022-12-19T00:43:59.155Z,13.82
2022-12-19T00:46:27.448Z,13.23
2022-12-19T00:48:54.811Z,13.85
2022-12-19T00:51:24.808Z,13.20
2022-12-19T00:53:53.519Z,14.13
2022-12-19T00:56:29.603Z,14.07
2022-12-19T00:58:57.384Z,13.00
2022-12-19T01:01:28.109Z,12.50
2022-12-19T01:04:27.245Z,12.35
2022-12-19T01:06:43.102Z,12.40
2022-12-19T01:09:12.659Z,12.77
2022-12-19T01:11:59.587Z,12.50
2022-12-19T01:14:26.837Z,13.02
2022-12-19T01:16:53.877Z,11.82
2022-12-19T01:19:21.113Z,11.80
2022-12-19T01:21:48.382Z,12.45
2022-12-19T01:24:18.994Z,12.35
2022-12-19T01:26:46.596Z,11.95
2022-12-19T01:29:13.613Z,11.93
2022-12-19T01:31:40.739Z,11.27
2022-12-19T01:34:07.930Z,11.95
2022-12-19T01:36:38.587Z,11.40
2022-12-19T01:39:08.023Z,11.55
2022-12-19T01:41:35.772Z,11.23
2022-12-19T01:44:06.464Z,11.63
2022-12-19T01:46:44.672Z,10.90
2022-12-19T01:49:26.439Z,11.10
2022-12-19T01:51:55.488Z,10.85
2022-12-19T01:54:27.175Z,11.75
2022-12-19T01:56:57.784Z,11.38
2022-12-19T01:59:32.128Z,10.35
2022-12-19T02:02:08.637Z,10.20
2022-12-19T02:04:36.495Z,10.48
2022-12-19T02:07:15.868Z,10.45
2022-12-19T02:09:47.052Z,10.23
2022-12-19T02:12:14.923Z,10.68
2022-12-19T02:14:42.621Z,9.73
2022-12-19T02:17:39.102Z,9.57
2022-12-19T02:20:45.856Z,9.20
2022-12-19T02:23:48.488Z,10.68
2022-12-19T02:26:47.304Z,9.85
2022-12-19T02:29:39.621Z,9.30
2022-12-19T02:32:18.749Z,9.65
2022-12-19T02:35:19.986Z,10.55
2022-12-19T02:38:10.722Z,9.23
2022-12-19T02:40:46.805Z,9.88
2022-12-19T02:43:20.192Z,9.43
2022-12-19T02:45:48.239Z,10.13
2022-12-19T02:48:19.267Z,9.05
2022-12-19T02:50:49.976Z,8.85
2022-12-19T02:53:18.212Z,8.40
2022-12-19T02:56:30.579Z,8.57
2022-12-19T02:59:37.338Z,8.38
2022-12-19T03:02:31.423Z,8.68
2022-12-19T03:05:08.842Z,8.77
2022-12-19T03:07:56.134Z,8.50
2022-12-19T03:10:56.542Z,9.05
2022-12-19T03:13:29.959Z,8.93
2022-12-19T03:15:59.500Z,8.98
2022-12-19T03:18:27.307Z,7.97
2022-12-19T03:21:34.089Z,8.32
2022-12-19T03:24:02.006Z,8.60
2022-12-19T03:26:33.193Z,8.35
2022-12-19T03:29:08.083Z,8.55
2022-12-19T03:31:36.074Z,9.18
2022-12-19T03:34:10.911Z,8.95
2022-12-19T03:36:42.762Z,7.40
2022-12-19T03:39:12.670Z,8.25
2022-12-19T03:42:02.058Z,8.05
2022-12-19T03:44:32.847Z,7.97
2022-12-19T03:47:18.271Z,7.55
2022-12-19T03:49:46.920Z,8.20
2022-12-19T03:52:46.404Z,7.85
2022-12-19T03:55:30.483Z,7.97
2022-12-19T03:58:03.984Z,7.28
2022-12-19T04:00:34.342Z,8.10
2022-12-19T04:03:02.179Z,8.63
2022-12-19T04:05:30.059Z,8.27
2022-12-19T04:08:00.248Z,7.40
2022-12-19T04:10:28.824Z,7.60
2022-12-19T04:13:03.325Z,8.00
2022-12-19T04:15:54.716Z,7.38
2022-12-19T04:18:22.854Z,7.85
2022-12-19T04:21:03.932Z,7.55
2022-12-19T04:23:44.812Z,7.60
2022-12-19T04:26:13.943Z,7.05
2022-12-19T04:28:47.591Z,7.65
2022-12-19T04:31:17.111Z,6.43
2022-12-19T04:33:44.314Z,7.22
2022-12-19T04:36:12.163Z,7.55
2022-12-19T04:38:39.312Z,6.85
2022-12-19T04:41:06.637Z,7.50
2022-12-19T04:43:33.752Z,7.45
2022-12-19T04:46:01.399Z,7.82
2022-12-19T04:48:28.671Z,7.30
2022-12-19T04:50:56.558Z,7.88
2022-12-19T04:53:25.097Z,7.25
2022-12-19T04:55:59.897Z,6.60
2022-12-19T04:58:27.306Z,7.97
2022-12-19T05:00:54.319Z,6.70
2022-12-19T05:03:21.442Z,6.90
2022-12-19T05:05:48.573Z,7.22
2022-12-19T05:08:16.917Z,7.03
2022-12-19T05:10:44.010Z,7.35
2022-12-19T05:13:11.265Z,7.22
2022-12-19T05:15:38.394Z,8.15
2022-12-19T05:18:05.908Z,6.93
2022-12-19T05:20:32.961Z,7.03
2022-12-19T05:23:03.470Z,7.15
2022-12-19T05:25:35.612Z,7.28
2022-12-19T05:30:29.612Z,6.97
2022-12-19T05:32:56.647Z,7.35
2022-12-19T05:35:23.709Z,7.20
2022-12-19T05:37:50.723Z,7.72
2022-12-19T05:40:17.892Z,8.40
2022-12-19T05:42:44.938Z,8.48
2022-12-19T05:45:12.293Z,9.38
2022-12-19T05:47:39.354Z,8.73
2022-12-19T05:50:06.807Z,8.70
2022-12-19T05:52:33.858Z,8.88
2022-12-19T05:55:00.944Z,8.75
2022-12-19T05:57:27.992Z,9.15
2022-12-19T05:59:55.104Z,8.65
2022-12-19T06:02:22.203Z,8.70
2022-12-19T06:04:49.410Z,8.00
2022-12-19T06:07:20.729Z,8.65
2022-12-19T06:09:48.257Z,9.07
2022-12-19T06:12:15.339Z,7.82
2022-12-19T06:14:42.384Z,8.77
2022-12-19T06:17:09.497Z,9.95
2022-12-19T06:19:36.649Z,8.82
2022-12-19T06:22:03.760Z,9.70
2022-12-19T06:24:30.854Z,10.13
2022-12-19T06:26:57.915Z,9.90
2022-12-19T06:29:24.956Z,10.38
2022-12-19T06:31:52.067Z,10.55
2022-12-19T06:34:46.897Z,11.13
2022-12-19T06:37:08.335Z,11.52
2022-12-19T06:39:35.719Z,13.25
2022-12-19T06:42:22.691Z,11.43
2022-12-19T06:44:52.517Z,11.35
2022-12-19T06:47:20.493Z,11.63
2022-12-19T06:49:48.850Z,12.27
2022-12-19T06:52:16.965Z,11.77
2022-12-19T06:54:44.090Z,12.00
2022-12-19T06:57:11.228Z,11.05
2022-12-19T06:59:38.317Z,12.88
2022-12-19T07:02:27.630Z,11.95
2022-12-19T07:05:04.181Z,11.98
2022-12-19T07:07:31.375Z,11.00
2022-12-19T07:09:58.506Z,11.15
2022-12-19T07:12:26.775Z,13.07
2022-12-19T07:14:54.332Z,13.35
2022-12-19T07:17:24.050Z,13.15
2022-12-19T07:19:53.049Z,13.10
2022-12-19T07:22:20.762Z,12.85
2022-12-19T07:24:48.203Z,12.32
2022-12-19T07:27:15.418Z,12.90
2022-12-19T07:29:42.468Z,13.43
2022-12-19T07:32:09.723Z,14.32
2022-12-19T07:34:36.791Z,13.45
2022-12-19T07:37:04.441Z,13.70
2022-12-19T07:39:31.516Z,13.15
2022-12-19T07:41:58.605Z,13.82
2022-12-19T07:44:25.684Z,14.02
2022-12-19T07:46:52.822Z,14.60
2022-12-19T07:49:22.760Z,14.75
2022-12-19T07:51:50.201Z,14.13
2022-12-19T07:54:17.342Z,14.18
2022-12-19T07:56:44.423Z,14.45
2022-12-19T07:59:13.174Z,14.07
2022-12-19T08:01:41.125Z,13.98
2022-12-19T08:04:08.508Z,12.63
2022-12-19T08:06:40.821Z,12.80
2022-12-19T08:09:08.748Z,14.57
2022-12-19T08:11:35.793Z,13.73
2022-12-19T08:14:02.889Z,14.43
2022-12-19T08:16:30.349Z,13.25
2022-12-19T08:18:57.858Z,13.23
2022-12-19T08:21:25.549Z,12.77
2022-12-19T08:23:53.710Z,14.35
2022-12-19T08:26:25.559Z,15.20
2022-12-19T08:28:58.128Z,14.20
2022-12-19T08:31:27.548Z,14.38
2022-12-19T08:33:56.988Z,14.43
2022-12-19T08:36:24.877Z,14.80
2022-12-19T08:38:52.385Z,14.35
2022-12-19T08:41:19.949Z,13.05
2022-12-19T08:43:51.921Z,13.73
2022-12-19T08:46:20.309Z,13.13
2022-12-19T08:48:47.654Z,13.77
2022-12-19T08:51:17.403Z,14.88
2022-12-19T08:53:46.462Z,13.63
2022-12-19T08:56:19.580Z,13.65
2022-12-19T08:58:46.995Z,14.15
2022-12-19T09:01:19.127Z,13.18
2022-12-19T09:04:08.611Z,13.45
2022-12-19T09:06:35.051Z,13.25
2022-12-19T09:09:04.071Z,13.63
2022-12-19T09:11:31.436Z,13.77
2022-12-19T09:13:58.800Z,13.20
2022-12-19T09:16:27.669Z,13.25
2022-12-19T09:18:58.854Z,12.90
2022-12-19T09:21:29.219Z,13.20
2022-12-19T09:26:34.924Z,13.68
2022-12-19T09:29:02.294Z,14.27
2022-12-19T09:31:30.262Z,14.73
2022-12-19T09:33:57.350Z,13.43
2022-12-19T09:36:25.923Z,12.30
2022-12-19T09:38:56.242Z,12.73
2022-12-19T09:44:30.113Z,12.88
2022-12-19T09:47:13.620Z,12.25
2022-12-19T09:49:44.773Z,11.82
2022-12-19T09:52:33.548Z,11.68
2022-12-19T09:55:26.113Z,12.23
2022-12-19T09:58:05.816Z,12.63
2022-12-19T10:00:44.279Z,11.70
2022-12-19T10:03:42.159Z,12.15
2022-12-19T10:07:16.795Z,11.65
2022-12-19T10:11:16.289Z,11.00
2022-12-19T10:12:45.021Z,11.07
2022-12-19T10:15:33.750Z,11.82
2022-12-19T10:18:38.322Z,11.05
2022-12-19T10:22:07.544Z,11.20
2022-12-19T10:24:55.258Z,10.73
2022-12-19T10:28:15.933Z,11.10
2022-12-19T10:31:17.231Z,11.10
2022-12-19T10:34:02.735Z,11.10
2022-12-19T10:37:04.599Z,10.90
2022-12-19T10:39:33.277Z,11.23
2022-12-19T10:42:16.035Z,10.50
2022-12-19T10:44:45.998Z,11.32
2022-12-19T10:47:16.708Z,10.10
2022-12-19T10:49:45.168Z,10.25
2022-12-19T10:52:13.481Z,9.50
2022-12-19T10:54:44.002Z,10.70
2022-12-19T10:57:29.576Z,10.77
2022-12-19T11:00:15.947Z,10.25
2022-12-19T11:02:52.073Z,11.23
2022-12-19T11:05:32.038Z,11.55
2022-12-19T11:12:01.081Z,10.30
2022-12-19T11:17:01.066Z,10.27
2022-12-19T11:20:53.989Z,11.05
2022-12-19T11:29:19.403Z,10.65
2022-12-19T11:29:46.775Z,10.35
2022-12-19T11:30:05.172Z,10.90
2022-12-19T11:30:46.429Z,10.48
2022-12-19T11:34:21.579Z,11.02
2022-12-19T11:37:13.350Z,10.73
2022-12-19T11:39:48.549Z,10.73
2022-12-19T11:42:26.768Z,11.60
2022-12-19T11:45:32.293Z,10.93
2022-12-19T11:48:12.251Z,10.38
2022-12-19T11:50:54.506Z,11.45
2022-12-19T11:53:34.732Z,10.00
2022-12-19T11:56:16.299Z,10.68
2022-12-19T11:58:50.556Z,10.65
2022-12-19T12:01:42.051Z,10.60
2022-12-19T12:04:40.791Z,10.23
2022-12-19T12:07:22.989Z,11.25
2022-12-19T12:13:10.777Z,10.63
2022-12-19T12:23:31.083Z,10.95
2022-12-19T12:27:26.782Z,10.88
2022-12-19T12:31:32.346Z,10.02
2022-12-19T12:31:46.810Z,10.88
2022-12-19T12:32:01.909Z,11.80
2022-12-19T12:32:03.190Z,10.30
2022-12-19T12:35:32.950Z,11.75
2022-12-19T12:38:48.176Z,10.15
2022-12-19T12:41:52.872Z,11.68
2022-12-19T12:44:32.626Z,10.85
2022-12-19T12:50:00.466Z,11.77
2022-12-19T12:52:40.780Z,10.60
2022-12-19T12:57:55.627Z,10.73
2022-12-19T13:00:26.626Z,11.80
2022-12-19T13:03:02.648Z,11.68
2022-12-19T13:05:40.959Z,11.23
2022-12-19T13:08:32.017Z,11.55
2022-12-19T13:11:02.623Z,10.45
2022-12-19T13:13:55.060Z,11.15
2022-12-19T13:16:48.811Z,11.40
2022-12-19T13:19:31.131Z,11.65
2022-12-19T13:22:18.647Z,12.15
2022-12-19T13:24:56.186Z,10.57
2022-12-19T13:27:38.615Z,12.00
2022-12-19T13:30:16.166Z,10.77
2022-12-19T13:33:08.141Z,11.57
2022-12-19T13:39:04.776Z,11.23
2022-12-19T13:39:49.403Z,11.38
2022-12-19T13:41:59.829Z,12.07
2022-12-19T13:44:27.807Z,11.65
2022-12-19T13:46:56.201Z,12.05
2022-12-19T13:49:34.307Z,12.45
2022-12-19T13:52:03.032Z,12.35
2022-12-19T13:54:36.584Z,12.50
2022-12-19T13:57:09.078Z,12.77
2022-12-19T13:59:40.144Z,12.90
2022-12-19T14:02:30.170Z,12.02
2022-12-19T14:04:59.322Z,12.65
2022-12-19T14:07:39.478Z,11.77
2022-12-19T14:11:31.384Z,12.40
2022-12-19T14:13:59.011Z,12.27
2022-12-19T14:16:20.046Z,12.73
2022-12-19T14:18:50.576Z,12.25
2022-12-19T14:22:05.678Z,12.02
2022-12-19T14:24:12.565Z,13.43
2022-12-19T14:28:24.404Z,12.27
2022-12-19T14:30:19.862Z,11.52
2022-12-19T14:33:39.847Z,13.02
2022-12-19T14:36:07.057Z,12.55
2022-12-19T14:39:24.815Z,12.23
2022-12-19T14:41:07.823Z,13.82
2022-12-19T14:43:58.575Z,13.57
2022-12-19T14:54:14.085Z,13.40
2022-12-19T14:54:52.672Z,12.90
2022-12-19T14:56:08.921Z,12.50
2022-12-19T14:58:56.080Z,12.75
2022-12-19T15:01:24.223Z,13.60
2022-12-19T15:04:53.509Z,13.52
2022-12-19T15:07:07.656Z,12.63
2022-12-19T15:11:04.267Z,12.57
2022-12-19T15:14:54.923Z,12.60
2022-12-19T15:16:30.762Z,12.90
2022-12-19T15:19:00.621Z,12.77
2022-12-19T15:21:29.218Z,12.52
2022-12-19T15:23:56.433Z,12.27
2022-12-19T15:26:35.711Z,12.45
2022-12-19T15:29:07.174Z,12.43
2022-12-19T15:31:43.127Z,12.43
2022-12-19T15:34:35.903Z,12.25
2022-12-19T15:37:05.243Z,13.15
2022-12-19T15:39:32.550Z,11.85
2022-12-19T15:42:00.607Z,14.75
2022-12-19T15:44:43.950Z,14.77
2022-12-19T15:47:35.662Z,13.68
2022-12-19T15:50:22.641Z,15.55
2022-12-19T15:52:50.247Z,15.57
2022-12-19T15:55:19.531Z,13.43
2022-12-19T15:57:57.005Z,14.13
2022-12-19T16:00:27.949Z,14.55
2022-12-19T16:05:43.045Z,15.38
2022-12-19T16:08:13.170Z,14.63
2022-12-19T16:10:41.874Z,14.57
2022-12-19T16:13:21.467Z,15.80
2022-12-19T16:15:49.465Z,14.57
2022-12-19T16:18:17.324Z,14.02
2022-12-19T16:20:44.423Z,14.73
2022-12-19T16:23:12.348Z,14.25
2022-12-19T16:25:48.235Z,13.50
2022-12-19T16:28:25.615Z,13.15
2022-12-19T16:30:53.036Z,13.75
2022-12-19T16:33:27.945Z,13.65
2022-12-19T16:36:05.252Z,14.27
2022-12-19T16:38:33.611Z,14.48
2022-12-19T16:41:01.750Z,14.55
2022-12-19T16:43:32.287Z,14.88
2022-12-19T16:48:30.354Z,14.70
2022-12-19T16:50:59.116Z,14.52
2022-12-19T16:53:26.464Z,15.13
2022-12-19T16:55:55.430Z,15.57
2022-12-19T16:58:25.377Z,14.63
2022-12-19T17:00:55.316Z,16.30
2022-12-19T17:03:43.402Z,15.25
2022-12-19T17:06:13.900Z,16.10
2022-12-19T17:08:41.114Z,15.18
2022-12-19T17:11:19.039Z,16.10
2022-12-19T17:13:49.408Z,15.50
2022-12-19T17:18:46.351Z,16.35
2022-12-19T17:21:18.592Z,17.40
2022-12-19T17:23:49.428Z,16.40
2022-12-19T17:26:18.104Z,16.23
2022-12-19T17:28:48.370Z,15.50
2022-12-19T17:31:28.900Z,17.23
2022-12-19T17:36:32.618Z,15.85
2022-12-19T17:39:17.743Z,15.45
2022-12-19T17:41:45.222Z,15.88
2022-12-19T17:44:12.285Z,15.07
2022-12-19T17:46:39.435Z,16.23
2022-12-19T17:49:09.749Z,15.93
2022-12-19T17:51:37.337Z,16.02
2022-12-19T17:54:04.459Z,16.23
2022-12-19T17:56:31.485Z,16.85
2022-12-19T17:58:58.617Z,15.18
2022-12-19T18:01:26.018Z,15.40
2022-12-19T18:03:56.285Z,15.25
2022-12-19T18:06:23.424Z,15.60
2022-12-19T18:08:50.544Z,15.40
2022-12-19T18:11:21.568Z,15.57
2022-12-19T18:13:49.500Z,14.65
2022-12-19T18:16:19.867Z,13.55
2022-12-19T18:21:17.060Z,15.05
2022-12-19T18:23:44.616Z,15.82
2022-12-19T18:26:12.368Z,14.52
2022-12-19T18:28:40.378Z,14.13
2022-12-19T18:31:26.152Z,14.18
2022-12-19T18:33:54.831Z,15.43
2022-12-19T18:36:25.540Z,13.40
2022-12-19T18:38:53.427Z,13.82
2022-12-19T18:41:21.047Z,13.50
2022-12-19T18:43:48.655Z,12.88
2022-12-19T18:46:19.590Z,14.43
2022-12-19T18:48:46.731Z,14.35
2022-12-19T18:51:17.028Z,14.55
2022-12-19T18:53:45.227Z,14.27
2022-12-19T18:56:12.494Z,15.13
2022-12-19T18:58:39.712Z,14.63
2022-12-19T19:01:12.826Z,14.32
2022-12-19T19:03:41.966Z,12.38
2022-12-19T19:06:19.559Z,13.90
2022-12-19T19:08:46.712Z,14.55
2022-12-19T19:11:13.825Z,13.90
2022-12-19T19:13:40.898Z,13.70
2022-12-19T19:16:18.379Z,14.18
2022-12-19T19:18:47.390Z,14.43
2022-12-19T19:21:15.580Z,13.65
2022-12-19T19:23:58.085Z,13.68
2022-12-19T19:26:25.193Z,14.25
2022-12-19T19:28:52.939Z,13.68
2022-12-19T19:31:23.545Z,14.15
2022-12-19T19:33:55.882Z,14.00
2022-12-19T19:36:28.024Z,14.40
2022-12-19T19:38:57.400Z,13.68
2022-12-19T19:41:29.931Z,15.07
2022-12-19T19:43:57.821Z,15.02
2022-12-19T19:46:25.206Z,14.02
2022-12-19T19:48:52.349Z,13.85
2022-12-19T19:51:19.527Z,13.38
2022-12-19T19:53:47.053Z,14.48
2022-12-19T19:56:14.409Z,12.65
2022-12-19T19:58:41.569Z,13.68
2022-12-19T20:01:11.037Z,14.13
2022-12-19T20:03:40.277Z,13.10
2022-12-19T20:06:07.763Z,13.30
2022-12-19T20:08:39.731Z,13.13
2022-12-19T20:11:08.003Z,13.10
2022-12-19T20:13:35.188Z,12.63
2022-12-19T20:16:11.445Z,12.75
2022-12-19T20:18:40.376Z,12.85
2022-12-19T20:21:13.207Z,13.70
2022-12-19T20:23:42.855Z,12.55
2022-12-19T20:26:11.617Z,12.73
2022-12-19T20:28:45.936Z,12.68
2022-12-19T20:31:16.803Z,12.70
2022-12-19T20:33:44.026Z,13.07
2022-12-19T20:36:12.850Z,12.35
2022-12-19T20:38:40.657Z,13.13
2022-12-19T20:41:08.176Z,13.55
2022-12-19T20:43:35.806Z,13.63
2022-12-19T20:46:05.583Z,12.65
2022-12-19T20:48:33.196Z,13.15
2022-12-19T20:51:01.890Z,13.00
2022-12-19T20:53:28.989Z,13.50
2022-12-19T20:55:59.087Z,13.48
2022-12-19T20:58:27.201Z,12.35
2022-12-19T21:01:03.402Z,12.93
2022-12-19T21:03:30.867Z,13.43
2022-12-19T21:05:58.561Z,13.27
2022-12-19T21:08:26.665Z,12.95
2022-12-19T21:10:53.935Z,12.88
2022-12-19T21:13:22.429Z,13.77
2022-12-19T21:15:58.876Z,13.70
2022-12-19T21:18:26.907Z,12.57
2022-12-19T21:20:54.905Z,13.10
2022-12-19T21:23:23.423Z,13.07
2022-12-19T21:25:50.570Z,13.13
2022-12-19T21:28:18.023Z,12.02
2022-12-19T21:30:45.125Z,12.55
2022-12-19T21:33:12.257Z,13.27
2022-12-19T21:35:39.316Z,12.48
2022-12-19T21:38:06.417Z,13.05
2022-12-19T21:40:36.401Z,13.57
2022-12-19T21:43:11.206Z,13.27
2022-12-19T21:45:39.786Z,13.15
2022-12-19T21:48:07.108Z,12.20
2022-12-19T21:50:34.159Z,13.45
2022-12-19T21:53:01.405Z,13.32
2022-12-19T21:55:28.484Z,14.05
2022-12-19T21:57:55.831Z,12.45
2022-12-19T22:00:23.161Z,12.95
2022-12-19T22:03:12.778Z,12.65
2022-12-19T22:05:37.808Z,12.52
2022-12-19T22:08:05.123Z,12.32
2022-12-19T22:10:32.209Z,12.73
2022-12-19T22:12:59.338Z,13.00
2022-12-19T22:15:26.369Z,13.73
2022-12-19T22:17:53.409Z,13.52
2022-12-19T22:20:20.514Z,12.18
2022-12-19T22:22:47.683Z,12.23
2022-12-19T22:25:15.523Z,13.18
2022-12-19T22:27:42.663Z,13.02
2022-12-19T22:30:11.268Z,13.43
2022-12-19T22:32:38.601Z,13.10
2022-12-19T22:35:06.243Z,12.52
2022-12-19T22:37:33.384Z,13.85
2022-12-19T22:40:00.677Z,12.93
2022-12-19T22:42:28.261Z,12.25
2022-12-19T22:44:55.348Z,12.80
2022-12-19T22:47:22.459Z,12.13
2022-12-19T22:49:52.654Z,12.93
2022-12-19T22:52:19.879Z,13.05
2022-12-19T22:54:46.898Z,12.65
2022-12-19T22:57:13.955Z,11.45
2022-12-19T22:59:42.212Z,13.18
2022-12-19T23:02:09.636Z,13.52
2022-12-19T23:04:36.790Z,12.02
2022-12-19T23:07:03.852Z,12.95
2022-12-19T23:09:30.922Z,13.48
2022-12-19T23:11:57.972Z,12.35
2022-12-19T23:14:25.039Z,13.05
2022-12-19T23:16:52.141Z,11.27
2022-12-19T23:19:19.325Z,13.43
2022-12-19T23:21:46.544Z,12.18
2022-12-19T23:24:14.198Z,13.23
2022-12-19T23:26:41.299Z,12.43
2022-12-19T23:29:11.876Z,12.13
2022-12-19T23:31:44.436Z,12.43
2022-12-19T23:34:11.828Z,11.77
2022-12-19T23:39:26.569Z,13.55
2022-12-19T23:41:53.635Z,12.15
2022-12-19T23:44:20.779Z,12.75
2022-12-19T23:46:47.833Z,11.57
2022-12-19T23:49:15.809Z,12.43
2022-12-19T23:51:43.166Z,12.30
2022-12-19T23:54:10.275Z,12.75
2022-12-19T23:56:37.669Z,11.98
2022-12-19T23:59:04.905Z,13.52
